Time;durP1;ratioP1;P1;durP2;ratioP2;P2;SDS_P1;SDS_P2;PMS_P1;PMS_P2;Temp;Humidity;BMP_temperature;BMP_pressure;BME280_temperature;BME280_humidity;BME280_pressure;Samples;Min_cycle;Max_cycle;Signal;HPM_P1;HPM_P2
2022/07/04 00:00:01;;;;;;;4.65;2.60;;;15.50;99.90;;;;;;5031858;28;20148;-42
2022/07/04 00:02:27;;;;;;;3.83;1.98;;;15.40;99.90;;;;;;5034695;28;20033;-40
2022/07/04 00:04:53;;;;;;;4.97;2.67;;;15.40;99.90;;;;;;5033476;28;20040;-57
2022/07/04 00:07:19;;;;;;;2.20;1.65;;;15.40;99.90;;;;;;5032231;28;20021;-35
2022/07/04 00:09:45;;;;;;;4.65;2.10;;;15.40;99.90;;;;;;5011176;28;20091;-37
2022/07/04 00:12:10;;;;;;;4.65;1.90;;;15.30;99.90;;;;;;5024301;28;20505;-34
2022/07/04 00:14:36;;;;;;;3.13;1.83;;;15.30;99.90;;;;;;5026178;28;20147;-35
2022/07/04 00:17:02;;;;;;;3.70;1.58;;;15.20;99.90;;;;;;5029752;28;20059;-36
2022/07/04 00:19:28;;;;;;;1.80;1.40;;;15.20;99.90;;;;;;5033184;28;20540;-37
2022/07/04 00:21:53;;;;;;;5.55;2.05;;;15.20;99.90;;;;;;5032602;28;20096;-38
2022/07/04 00:24:19;;;;;;;7.28;1.98;;;15.10;99.90;;;;;;5030824;28;20522;-37
2022/07/04 00:26:44;;;;;;;1.95;1.80;;;15.10;99.90;;;;;;5026461;28;20026;-35
2022/07/04 00:29:10;;;;;;;3.10;2.00;;;15.00;99.90;;;;;;5029726;28;20488;-32
2022/07/04 00:31:35;;;;;;;4.55;2.03;;;15.00;99.90;;;;;;5031175;28;20072;-36
2022/07/04 00:34:02;;;;;;;4.85;2.22;;;15.00;99.90;;;;;;5032082;28;20491;-34
2022/07/04 00:36:27;;;;;;;5.38;1.90;;;15.00;99.90;;;;;;5031669;28;20022;-34
2022/07/04 00:38:53;;;;;;;6.97;2.22;;;14.90;99.90;;;;;;5032016;28;20420;-39
2022/07/04 00:41:19;;;;;;;6.65;2.08;;;14.90;99.90;;;;;;5029885;28;20100;-39
2022/07/04 00:44:09;;;;;;;6.22;1.85;;;14.80;99.90;;;;;;5029644;28;20050;-63
2022/07/04 00:46:35;;;;;;;5.03;1.90;;;14.80;99.90;;;;;;5033858;28;20167;-40
2022/07/04 00:49:03;;;;;;;3.33;2.10;;;14.80;99.90;;;;;;5033787;28;20053;-40
2022/07/04 00:51:29;;;;;;;2.60;2.17;;;14.80;99.90;;;;;;5016177;28;20090;-62
2022/07/04 00:53:56;;;;;;;2.67;2.20;;;14.70;99.90;;;;;;5012967;28;20064;-39
2022/07/04 00:56:23;;;;;;;2.75;1.50;;;14.80;99.90;;;;;;5023419;28;20667;-38
2022/07/04 00:58:50;;;;;;;2.55;2.03;;;14.80;99.90;;;;;;5014071;28;20029;-40
2022/07/04 01:01:16;;;;;;;2.10;1.50;;;14.80;99.90;;;;;;5015441;28;20026;-36
2022/07/04 01:03:42;;;;;;;4.97;1.98;;;14.80;99.90;;;;;;5031830;28;20022;-31
2022/07/04 01:06:08;;;;;;;3.72;1.63;;;14.80;99.90;;;;;;5031125;28;20021;-30
2022/07/04 01:08:40;;;;;;;2.17;1.50;;;14.80;99.90;;;;;;5033197;28;20488;-33
2022/07/04 01:11:05;;;;;;;2.85;1.77;;;14.90;99.90;;;;;;5028792;28;20033;-33
2022/07/04 01:13:31;;;;;;;2.90;1.70;;;14.90;99.90;;;;;;5033340;28;20385;-36
2022/07/04 01:15:57;;;;;;;6.45;1.38;;;15.00;99.90;;;;;;5033323;28;20021;-33
2022/07/04 01:18:23;;;;;;;3.03;1.05;;;15.00;99.90;;;;;;5028377;28;20551;-32
2022/07/04 01:20:48;;;;;;;2.72;1.50;;;15.10;99.90;;;;;;5012543;28;20029;-39
2022/07/04 01:23:14;;;;;;;2.80;1.60;;;15.10;99.90;;;;;;5029210;28;20499;-54
2022/07/04 01:25:39;;;;;;;4.40;1.55;;;15.10;99.90;;;;;;5032403;28;20392;-38
2022/07/04 01:28:06;;;;;;;4.43;1.50;;;15.10;99.90;;;;;;5029816;28;20040;-39
2022/07/04 01:30:32;;;;;;;2.22;1.23;;;15.20;99.90;;;;;;5023245;28;20072;-40
2022/07/04 01:32:58;;;;;;;4.07;1.27;;;15.20;99.90;;;;;;5031190;28;20417;-40
2022/07/04 01:35:24;;;;;;;2.00;1.50;;;15.20;99.90;;;;;;5033122;28;20025;-37
2022/07/04 01:37:50;;;;;;;2.85;1.23;;;15.20;99.90;;;;;;5030890;28;20572;-43
2022/07/04 01:40:17;;;;;;;6.53;1.60;;;15.20;99.90;;;;;;5027846;28;20500;-39
2022/07/04 01:45:27;;;;;;;5.63;1.58;;;15.30;99.90;;;;;;5031993;28;20421;-39
2022/07/04 01:47:54;;;;;;;4.65;1.58;;;15.30;99.90;;;;;;5032199;28;20026;-32
2022/07/04 01:50:20;;;;;;;3.40;1.92;;;15.30;99.90;;;;;;5033132;28;20393;-34
2022/07/04 01:52:46;;;;;;;9.45;2.47;;;15.30;99.90;;;;;;5032974;28;20026;-33
2022/07/04 01:55:12;;;;;;;2.15;1.95;;;15.30;99.90;;;;;;5030180;28;20029;-50
2022/07/04 01:57:38;;;;;;;2.88;2.33;;;15.30;99.90;;;;;;5029854;28;20021;-32
2022/07/04 02:02:54;;;;;;;6.20;2.28;;;15.30;99.90;;;;;;5033276;28;20151;-34
2022/07/04 02:05:20;;;;;;;3.03;2.20;;;15.30;99.90;;;;;;5031931;28;20028;-49
2022/07/04 02:07:45;;;;;;;5.07;2.20;;;15.30;99.90;;;;;;5031877;28;20029;-40
2022/07/04 02:10:11;;;;;;;5.57;2.17;;;15.30;99.90;;;;;;5028983;28;20470;-36
2022/07/04 02:15:21;;;;;;;4.65;2.55;;;15.30;99.90;;;;;;5025751;28;20507;-39
2022/07/04 02:17:47;;;;;;;4.05;2.17;;;15.30;99.90;;;;;;5029984;28;20026;-39
2022/07/04 02:20:13;;;;;;;5.97;1.98;;;15.30;99.90;;;;;;5031560;28;20473;-39
2022/07/04 02:22:39;;;;;;;5.50;2.20;;;15.30;99.90;;;;;;5031672;28;20029;-38
2022/07/04 02:25:05;;;;;;;2.53;1.63;;;15.30;99.90;;;;;;5032711;28;20033;-38
2022/07/04 02:27:30;;;;;;;4.45;2.10;;;15.30;99.90;;;;;;5031970;28;20041;-38
2022/07/04 02:29:56;;;;;;;3.90;2.20;;;15.30;99.90;;;;;;5032653;28;20025;-47
2022/07/04 02:32:21;;;;;;;3.33;2.28;;;15.20;99.90;;;;;;5031486;28;20407;-40
2022/07/04 02:34:47;;;;;;;4.57;2.08;;;15.20;99.90;;;;;;5029406;28;20021;-39
2022/07/04 02:37:13;;;;;;;2.28;1.90;;;15.20;99.90;;;;;;5011930;28;20382;-39
2022/07/04 02:39:38;;;;;;;2.65;1.70;;;15.20;99.90;;;;;;5030287;28;20096;-37
2022/07/04 02:42:04;;;;;;;2.78;2.42;;;15.20;99.90;;;;;;5030101;28;20025;-39
2022/07/04 02:44:30;;;;;;;5.97;2.50;;;15.20;99.90;;;;;;5031404;28;20416;-38
2022/07/04 02:46:56;;;;;;;3.15;2.60;;;15.20;99.90;;;;;;5035053;28;20025;-44
2022/07/04 02:49:22;;;;;;;4.32;2.10;;;15.20;99.90;;;;;;5036118;28;20437;-38
2022/07/04 02:51:47;;;;;;;4.88;1.83;;;15.20;99.90;;;;;;5035097;28;20049;-37
2022/07/04 02:54:13;;;;;;;2.95;2.13;;;15.30;99.90;;;;;;5034095;28;20033;-38
2022/07/04 02:59:23;;;;;;;6.45;2.50;;;15.20;99.90;;;;;;5035054;28;20077;-39
2022/07/04 03:01:49;;;;;;;5.93;2.78;;;15.30;99.90;;;;;;5034187;28;20100;-36
2022/07/04 03:04:14;;;;;;;6.28;2.85;;;15.30;99.90;;;;;;5035779;28;20025;-33
2022/07/04 03:06:42;;;;;;;4.97;2.55;;;15.30;99.90;;;;;;5035694;28;20465;-32
2022/07/04 03:09:08;;;;;;;12.18;2.47;;;15.30;99.90;;;;;;5035478;28;20037;-34
2022/07/04 03:11:34;;;;;;;6.88;2.70;;;15.30;99.90;;;;;;5032480;28;20030;-36
2022/07/04 03:13:59;;;;;;;8.63;3.60;;;15.30;99.90;;;;;;5034695;28;20465;-33
2022/07/04 03:16:25;;;;;;;6.03;2.25;;;15.30;99.90;;;;;;5035160;28;20041;-42
2022/07/04 03:18:50;;;;;;;7.63;2.25;;;15.30;99.90;;;;;;5034365;28;20030;-34
2022/07/04 03:21:16;;;;;;;12.55;3.30;;;15.30;99.90;;;;;;5032127;28;20025;-34
2022/07/04 03:23:41;;;;;;;5.35;2.60;;;15.30;99.90;;;;;;5035515;28;20131;-39
2022/07/04 03:26:07;;;;;;;2.85;2.40;;;15.30;99.90;;;;;;5033333;28;20091;-38
2022/07/04 03:28:33;;;;;;;8.85;2.83;;;15.30;99.90;;;;;;5035264;28;20022;-39
2022/07/04 03:30:59;;;;;;;6.03;2.67;;;15.30;99.90;;;;;;5031405;28;20033;-42
2022/07/04 03:33:25;;;;;;;3.40;2.53;;;15.30;99.90;;;;;;5033899;28;20053;-38
2022/07/04 03:35:51;;;;;;;2.97;2.25;;;15.30;99.90;;;;;;5035144;28;20068;-37
2022/07/04 03:38:16;;;;;;;5.70;2.25;;;15.40;99.90;;;;;;5035057;28;20493;-40
2022/07/04 03:40:42;;;;;;;9.80;2.25;;;15.30;99.90;;;;;;5033857;28;20101;-39
2022/07/04 03:43:08;;;;;;;3.17;2.58;;;15.40;99.90;;;;;;5032769;28;20048;-40
2022/07/04 03:45:34;;;;;;;5.80;2.40;;;15.40;99.90;;;;;;5034352;28;20018;-39
2022/07/04 03:48:02;;;;;;;3.42;2.40;;;15.40;99.90;;;;;;5034255;28;20477;-38
2022/07/04 03:50:28;;;;;;;6.20;2.30;;;15.40;99.90;;;;;;5033875;28;20037;-40
2022/07/04 03:52:54;;;;;;;6.40;2.53;;;15.40;99.90;;;;;;5033916;28;20489;-36
2022/07/04 03:55:19;;;;;;;7.72;3.20;;;15.40;99.90;;;;;;5032798;28;20029;-41
2022/07/04 03:57:45;;;;;;;8.65;2.55;;;15.50;99.90;;;;;;5033621;28;20021;-50
2022/07/04 04:00:11;;;;;;;10.80;3.00;;;15.50;99.90;;;;;;5030270;28;20053;-40
2022/07/04 04:02:37;;;;;;;3.35;2.22;;;15.50;99.90;;;;;;5014620;28;20373;-40
2022/07/04 04:07:48;;;;;;;7.45;2.88;;;15.60;99.90;;;;;;5034765;28;20048;-32
2022/07/04 04:10:14;;;;;;;3.25;2.20;;;15.60;99.90;;;;;;5033061;28;20465;-39
2022/07/04 04:12:39;;;;;;;6.50;2.40;;;15.60;99.90;;;;;;5034448;28;20473;-30
2022/07/04 04:15:05;;;;;;;9.88;2.60;;;15.60;99.90;;;;;;5033882;28;20523;-34
2022/07/04 04:17:31;;;;;;;4.20;3.05;;;15.70;99.90;;;;;;5030930;28;20017;-35
2022/07/04 04:19:57;;;;;;;5.13;2.67;;;15.70;99.90;;;;;;5030789;28;20104;-38
2022/07/04 04:22:22;;;;;;;6.38;2.50;;;15.70;99.90;;;;;;5029707;28;20053;-30
2022/07/04 04:24:48;;;;;;;4.43;2.05;;;15.70;99.90;;;;;;5034167;28;20018;-31
2022/07/04 04:27:13;;;;;;;4.90;2.33;;;15.80;99.90;;;;;;5034120;28;20112;-37
2022/07/04 04:29:39;;;;;;;4.65;2.70;;;15.80;99.90;;;;;;5031215;28;20056;-34
2022/07/04 04:32:05;;;;;;;4.57;2.70;;;15.80;99.90;;;;;;5033195;28;20033;-33
2022/07/04 04:34:31;;;;;;;3.28;2.40;;;15.80;99.90;;;;;;5032292;28;20030;-39
2022/07/04 04:36:56;;;;;;;5.97;3.00;;;15.80;99.90;;;;;;5032809;28;20104;-34
2022/07/04 04:39:22;;;;;;;3.63;2.30;;;15.90;99.90;;;;;;5033619;28;20087;-34
2022/07/04 04:41:48;;;;;;;3.60;2.78;;;15.90;99.90;;;;;;5030560;28;20076;-46
2022/07/04 04:44:13;;;;;;;4.65;2.20;;;16.00;99.90;;;;;;5015208;28;20096;-40
2022/07/04 04:46:39;;;;;;;7.90;2.15;;;16.00;99.90;;;;;;5015301;28;20037;-40
2022/07/04 04:49:04;;;;;;;8.10;2.83;;;16.00;99.90;;;;;;5033757;28;20029;-40
2022/07/04 04:51:30;;;;;;;3.22;2.75;;;16.00;99.90;;;;;;5029325;28;20416;-40
2022/07/04 04:53:56;;;;;;;9.32;2.50;;;16.00;99.90;;;;;;5016043;28;20032;-40
2022/07/04 04:56:21;;;;;;;6.70;2.63;;;16.00;99.90;;;;;;5033012;28;20033;-39
2022/07/04 04:58:47;;;;;;;8.50;2.17;;;16.00;99.90;;;;;;5033198;28;20389;-40
2022/07/04 05:01:13;;;;;;;11.75;2.35;;;16.10;99.90;;;;;;5031952;28;20022;-40
2022/07/04 05:03:38;;;;;;;5.30;2.00;;;16.10;99.90;;;;;;5032596;28;20026;-38
2022/07/04 05:06:04;;;;;;;4.55;2.15;;;16.10;99.90;;;;;;5029635;28;20013;-40
2022/07/04 05:08:29;;;;;;;5.35;2.10;;;16.20;99.90;;;;;;5032576;28;20488;-40
2022/07/04 05:10:55;;;;;;;2.72;2.10;;;16.20;99.90;;;;;;5031814;28;20032;-42
2022/07/04 05:13:21;;;;;;;6.38;3.13;;;16.30;99.90;;;;;;5032518;28;20037;-41
2022/07/04 05:15:47;;;;;;;3.17;2.10;;;16.30;99.90;;;;;;5033012;28;20143;-40
2022/07/04 05:18:12;;;;;;;5.13;2.25;;;16.30;99.90;;;;;;5033019;28;20446;-40
2022/07/04 05:20:39;;;;;;;8.85;2.10;;;16.30;99.90;;;;;;5030004;28;20025;-33
2022/07/04 05:23:05;;;;;;;6.03;2.40;;;16.40;99.90;;;;;;5032766;28;20032;-33
2022/07/04 05:25:30;;;;;;;7.70;1.80;;;16.50;99.90;;;;;;5033082;28;20018;-36
2022/07/04 05:27:56;;;;;;;4.85;2.38;;;16.60;99.90;;;;;;5028697;28;20022;-33
2022/07/04 05:30:21;;;;;;;6.85;2.55;;;16.70;99.90;;;;;;5031110;28;20060;-37
2022/07/04 05:32:47;;;;;;;5.88;1.92;;;16.60;99.90;;;;;;5030866;28;20025;-36
2022/07/04 05:35:13;;;;;;;2.97;1.65;;;16.70;99.90;;;;;;5031993;28;20101;-34
2022/07/04 05:37:38;;;;;;;4.13;1.90;;;16.70;99.90;;;;;;5030217;28;20439;-38
2022/07/04 05:40:05;;;;;;;4.45;2.40;;;16.80;99.90;;;;;;5031524;28;20013;-30
2022/07/04 05:42:30;;;;;;;5.50;2.40;;;16.90;99.90;;;;;;5029625;28;20500;-45
2022/07/04 05:44:56;;;;;;;8.13;2.45;;;17.00;99.90;;;;;;5022508;28;20030;-40
2022/07/04 05:47:25;;;;;;;4.65;2.45;;;17.10;99.90;;;;;;5030484;28;20485;-40
2022/07/04 05:49:51;;;;;;;12.68;2.33;;;17.30;99.90;;;;;;5042591;28;20086;-36
2022/07/04 05:52:17;;;;;;;5.38;2.15;;;17.30;99.90;;;;;;5029898;28;20033;-36
2022/07/04 05:54:42;;;;;;;8.02;2.30;;;17.40;99.90;;;;;;5032441;28;20505;-34
2022/07/04 05:57:08;;;;;;;7.97;2.65;;;17.40;99.90;;;;;;5030950;28;20029;-34
2022/07/04 05:59:34;;;;;;;3.55;1.90;;;17.50;99.90;;;;;;5032222;28;20428;-32
2022/07/04 06:02:00;;;;;;;8.55;2.20;;;17.50;99.90;;;;;;5014225;28;20061;-63
2022/07/04 06:04:25;;;;;;;6.03;2.67;;;17.70;99.90;;;;;;5014586;28;20084;-34
2022/07/04 06:06:51;;;;;;;8.48;2.20;;;17.90;99.90;;;;;;5024194;28;20029;-35
2022/07/04 06:09:17;;;;;;;8.15;2.83;;;18.00;99.90;;;;;;5032001;28;20080;-34
2022/07/04 06:11:43;;;;;;;11.32;2.88;;;18.00;99.90;;;;;;5030654;28;20032;-36
2022/07/04 06:14:08;;;;;;;7.13;2.90;;;18.00;99.90;;;;;;5032103;28;20112;-35
2022/07/04 06:16:34;;;;;;;3.28;2.40;;;18.00;99.90;;;;;;5027886;28;20045;-32
2022/07/04 06:18:59;;;;;;;5.20;2.55;;;18.00;99.90;;;;;;5029376;28;20484;-37
2022/07/04 06:21:25;;;;;;;5.57;2.65;;;18.20;99.90;;;;;;5032179;28;20041;-35
2022/07/04 06:23:51;;;;;;;10.57;2.53;;;18.50;99.90;;;;;;5035410;28;20030;-34
2022/07/04 06:26:16;;;;;;;4.70;2.50;;;18.50;99.90;;;;;;5034776;28;20025;-38
2022/07/04 06:28:42;;;;;;;11.55;3.00;;;19.30;99.90;;;;;;5018616;28;20026;-34
2022/07/04 06:31:08;;;;;;;6.50;2.83;;;20.90;99.90;;;;;;5025127;28;20389;-35
2022/07/04 06:35:44;;;;;;;5.43;1.98;;;22.50;99.90;;;;;;5033597;28;20032;-35
2022/07/04 06:36:19;;;;;;;7.50;1.77;;;23.40;99.90;;;;;;5028892;28;20037;-36
2022/07/04 06:38:44;;;;;;;2.75;1.52;;;24.20;99.90;;;;;;5010158;28;20026;-35
2022/07/04 06:41:28;;;;;;;4.53;1.98;;;24.90;99.90;;;;;;5035193;28;20499;-31
2022/07/04 06:43:54;;;;;;;7.88;1.90;;;25.30;99.90;;;;;;5031088;28;20481;-34
2022/07/04 06:46:20;;;;;;;2.92;1.45;;;26.20;99.90;;;;;;5032006;28;20024;-36
2022/07/04 06:48:46;;;;;;;7.15;2.05;;;26.60;99.90;;;;;;5035278;28;20029;-33
2022/07/04 06:51:12;;;;;;;4.68;1.70;;;26.40;99.90;;;;;;5000502;28;20042;-35
2022/07/04 06:53:37;;;;;;;4.20;2.00;;;25.70;99.90;;;;;;5029996;28;20065;-31
2022/07/04 06:56:03;;;;;;;5.53;2.08;;;24.70;99.90;;;;;;5035962;28;20026;-33
2022/07/04 06:58:29;;;;;;;2.30;1.88;;;23.60;99.90;;;;;;5033760;28;20022;-42
2022/07/04 07:00:54;;;;;;;7.43;2.25;;;23.00;99.90;;;;;;5035236;28;20385;-35
2022/07/04 07:03:20;;;;;;;5.72;1.80;;;22.70;99.90;;;;;;5037383;28;20500;-36
2022/07/04 07:05:46;;;;;;;4.60;1.90;;;23.10;99.90;;;;;;5029566;28;20034;-33
2022/07/04 07:08:11;;;;;;;1.60;1.50;;;23.70;99.90;;;;;;5011382;28;20033;-38
2022/07/04 07:10:37;;;;;;;7.95;1.88;;;24.70;99.90;;;;;;5035156;28;20561;-36
2022/07/04 07:13:03;;;;;;;7.45;1.98;;;25.20;99.90;;;;;;5017401;28;20025;-30
2022/07/04 07:15:29;;;;;;;4.10;1.15;;;26.10;99.90;;;;;;5035097;28;20021;-48
2022/07/04 07:17:54;;;;;;;7.13;1.63;;;27.00;99.90;;;;;;5035398;28;20035;-43
2022/07/04 07:20:20;;;;;;;3.88;1.38;;;27.30;99.70;;;;;;5035992;28;20405;-40
2022/07/04 07:22:46;;;;;;;8.05;1.50;;;27.70;99.60;;;;;;5035156;28;20366;-39
2022/07/04 07:25:12;;;;;;;4.78;1.23;;;28.30;98.80;;;;;;5035091;28;20033;-40
2022/07/04 07:27:39;;;;;;;2.60;1.13;;;28.20;98.50;;;;;;5035110;28;20049;-38
2022/07/04 07:30:06;;;;;;;2.15;1.13;;;28.70;98.10;;;;;;5029860;28;20755;-40
2022/07/04 07:32:32;;;;;;;5.75;1.55;;;28.50;97.40;;;;;;5034954;28;20026;-40
2022/07/04 07:34:57;;;;;;;5.93;1.35;;;27.30;97.90;;;;;;5017354;28;20021;-40
2022/07/04 07:37:23;;;;;;;4.93;1.27;;;26.40;98.80;;;;;;5031417;28;20396;-42
2022/07/04 07:39:50;;;;;;;5.03;1.17;;;26.50;98.70;;;;;;5033701;28;20029;-39
2022/07/04 07:42:16;;;;;;;4.73;1.40;;;26.50;99.10;;;;;;5031948;28;20622;-36
2022/07/04 07:44:45;;;;;;;4.30;1.70;;;26.60;98.30;;;;;;5028085;28;20754;-39
2022/07/04 07:47:12;;;;;;;3.00;0.70;;;26.60;98.60;;;;;;5031490;28;20025;-40
2022/07/04 07:49:37;;;;;;;2.93;1.07;;;26.50;98.70;;;;;;5035081;28;20025;-40
2022/07/04 07:52:03;;;;;;;3.55;1.00;;;26.30;98.20;;;;;;5034932;28;20100;-40
2022/07/04 07:54:29;;;;;;;4.78;0.90;;;26.00;98.20;;;;;;5042609;28;20022;-39
2022/07/04 07:56:55;;;;;;;1.98;0.88;;;25.70;98.30;;;;;;5027617;28;20492;-39
2022/07/04 07:59:20;;;;;;;3.72;1.02;;;25.30;98.80;;;;;;5022332;28;20034;-40
2022/07/04 08:01:46;;;;;;;1.27;0.82;;;25.10;99.00;;;;;;5014918;28;20100;-41
2022/07/04 08:06:55;;;;;;;3.42;1.20;;;25.10;98.90;;;;;;5024123;28;20467;-37
2022/07/04 08:09:21;;;;;;;1.50;0.93;;;25.30;99.00;;;;;;5045585;28;20025;-50
2022/07/04 08:11:47;;;;;;;4.72;1.30;;;25.40;98.70;;;;;;5031843;28;20032;-41
2022/07/04 08:14:13;;;;;;;1.98;1.00;;;25.10;98.90;;;;;;5031591;28;20504;-40
2022/07/04 08:16:38;;;;;;;6.78;1.80;;;24.60;99.30;;;;;;5032579;28;20439;-40
2022/07/04 08:19:04;;;;;;;5.50;1.83;;;24.40;99.80;;;;;;5030576;28;20031;-58
2022/07/04 08:21:30;;;;;;;3.70;1.55;;;24.10;99.90;;;;;;5022401;28;20082;-37
2022/07/04 08:23:55;;;;;;;1.35;0.95;;;23.90;99.60;;;;;;5027967;28;20030;-34
2022/07/04 08:26:22;;;;;;;7.00;0.85;;;23.90;99.00;;;;;;5023441;28;20370;-38
2022/07/04 08:28:48;;;;;;;;;;;24.20;98.80;;;;;;5024701;28;20465;-40
2022/07/04 08:31:13;;;;;;;1.33;1.13;;;24.50;98.40;;;;;;5016235;28;19912;-39
2022/07/04 08:33:39;;;;;;;1.20;0.63;;;25.00;97.80;;;;;;5034055;28;20026;-39
2022/07/04 08:36:05;;;;;;;1.23;0.85;;;25.40;97.30;;;;;;5033814;28;20534;-38
2022/07/04 08:38:30;;;;;;;2.70;0.60;;;25.60;96.70;;;;;;5033781;28;20037;-39
2022/07/04 08:40:59;;;;;;;3.10;0.90;;;25.90;96.30;;;;;;5033857;28;20018;-40
2022/07/04 08:43:26;;;;;;;2.70;0.93;;;26.40;95.30;;;;;;5033346;28;20037;-40
2022/07/04 08:45:56;;;;;;;0.93;0.73;;;26.40;95.10;;;;;;5033844;28;20021;-40
2022/07/04 08:48:25;;;;;;;1.90;0.73;;;25.90;95.10;;;;;;5025279;28;20507;-39
2022/07/04 08:50:59;;;;;;;2.92;0.90;;;24.80;96.00;;;;;;5033659;28;20029;-39
2022/07/04 08:53:30;;;;;;;0.60;0.60;;;24.10;97.30;;;;;;5033684;28;20469;-38
2022/07/04 08:58:45;;;;;;;1.65;0.90;;;23.00;98.70;;;;;;5031837;28;20619;-38
2022/07/04 09:01:20;;;;;;;4.70;1.10;;;22.90;98.80;;;;;;5033921;28;20461;-39
2022/07/04 09:03:46;;;;;;;0.93;0.60;;;22.90;99.00;;;;;;5032812;28;20500;-39
2022/07/04 09:06:12;;;;;;;1.65;0.73;;;23.30;99.00;;;;;;5033798;28;20088;-39
2022/07/04 09:08:39;;;;;;;2.58;0.98;;;23.60;99.00;;;;;;5033364;28;20043;-39
2022/07/04 09:11:05;;;;;;;1.45;0.70;;;23.80;98.60;;;;;;5033736;28;20029;-38
2022/07/04 09:13:32;;;;;;;1.13;1.02;;;24.10;98.70;;;;;;5032162;28;20465;-39
2022/07/04 09:15:58;;;;;;;5.05;0.95;;;24.10;98.00;;;;;;5033333;28;20026;-53
2022/07/04 09:18:26;;;;;;;1.15;0.70;;;23.80;98.00;;;;;;5033761;28;20480;-38
2022/07/04 09:20:57;;;;;;;1.50;0.95;;;23.30;98.90;;;;;;5031965;28;20053;-39
2022/07/04 09:23:44;;;;;;;1.65;1.10;;;23.10;98.80;;;;;;5028055;28;20029;-47
2022/07/04 09:26:20;;;;;;;3.50;1.10;;;22.70;99.30;;;;;;5023475;28;20022;-38
2022/07/04 09:28:58;;;;;;;1.48;0.90;;;22.50;99.50;;;;;;5024832;28;20489;-38
2022/07/04 09:31:28;;;;;;;1.80;0.85;;;22.00;98.70;;;;;;5022694;28;20389;-37
2022/07/04 09:33:55;;;;;;;0.75;0.60;;;21.70;99.20;;;;;;5031082;28;20026;-39
2022/07/04 09:36:25;;;;;;;2.30;1.25;;;21.60;99.00;;;;;;5026829;28;20022;-40
2022/07/04 09:39:15;;;;;;;1.45;0.60;;;21.40;99.10;;;;;;5026472;28;20555;-38
2022/07/04 09:41:51;;;;;;;0.80;0.80;;;21.10;99.50;;;;;;5028640;28;20095;-39
2022/07/04 09:44:17;;;;;;;1.85;1.05;;;20.80;99.90;;;;;;5025456;28;20033;-39
2022/07/04 09:46:43;;;;;;;1.58;1.17;;;20.60;99.60;;;;;;5029912;28;20018;-39
2022/07/04 09:49:10;;;;;;;0.82;0.75;;;20.60;99.90;;;;;;5032100;28;20033;-39
2022/07/04 09:51:46;;;;;;;;;;;20.70;99.90;;;;;;5032089;28;20034;-39
2022/07/04 09:54:27;;;;;;;4.03;1.63;;;20.80;99.90;;;;;;5016802;28;20344;-40
2022/07/04 09:56:58;;;;;;;1.65;1.10;;;20.70;99.90;;;;;;5026498;28;20528;-40
2022/07/04 09:59:27;;;;;;;0.95;0.85;;;20.60;99.90;;;;;;5029160;28;20171;-39
2022/07/04 10:02:09;;;;;;;0.70;0.70;;;20.60;99.90;;;;;;5036383;28;20064;-39
2022/07/04 10:04:48;;;;;;;2.65;0.85;;;20.70;99.90;;;;;;5037067;28;20060;-39
2022/07/04 10:07:43;;;;;;;2.83;0.80;;;20.90;99.90;;;;;;5032589;28;20477;-41
2022/07/04 10:10:33;;;;;;;2.45;0.70;;;21.20;99.90;;;;;;5029792;28;20033;-41
2022/07/04 10:13:17;;;;;;;1.00;0.80;;;21.60;99.60;;;;;;5034596;28;20033;-39
2022/07/04 10:15:43;;;;;;;1.45;1.00;;;22.20;98.30;;;;;;5031494;28;20029;-37
2022/07/04 10:18:10;;;;;;;0.70;0.65;;;23.10;98.00;;;;;;5012224;28;20064;-41
2022/07/04 10:20:36;;;;;;;1.08;0.50;;;23.30;96.10;;;;;;5029900;28;20477;-39
2022/07/04 10:23:02;;;;;;;1.20;0.60;;;23.20;96.00;;;;;;5034946;28;20488;-40
2022/07/04 10:25:29;;;;;;;1.60;0.50;;;23.10;96.40;;;;;;5015951;28;20480;-40
2022/07/04 10:27:55;;;;;;;1.08;0.30;;;23.40;95.80;;;;;;5028475;28;20385;-40
2022/07/04 10:30:33;;;;;;;1.38;0.85;;;23.30;94.80;;;;;;5028022;28;20018;-38
2022/07/04 10:33:01;;;;;;;0.95;0.50;;;23.30;95.30;;;;;;5014969;28;20025;-38
2022/07/04 10:35:56;;;;;;;4.78;1.00;;;23.10;95.60;;;;;;5037010;28;20496;-38
2022/07/04 10:38:27;;;;;;;3.45;0.80;;;23.20;95.70;;;;;;5021106;28;20029;-40
2022/07/04 10:40:56;;;;;;;3.50;0.70;;;23.00;96.40;;;;;;5032284;28;20112;-40
2022/07/04 10:43:43;;;;;;;4.55;0.70;;;22.80;97.20;;;;;;5035355;28;20046;-39
2022/07/04 10:46:19;;;;;;;0.57;0.57;;;23.30;96.70;;;;;;5033189;28;20033;-37
2022/07/04 10:48:54;;;;;;;1.60;0.87;;;23.80;95.70;;;;;;5030860;28;20026;-39
2022/07/04 10:51:42;;;;;;;2.83;0.88;;;23.80;95.80;;;;;;5035611;28;20272;-39
2022/07/04 10:54:12;;;;;;;2.97;0.70;;;22.70;96.50;;;;;;5028403;28;20133;-56
2022/07/04 10:56:43;;;;;;;1.20;0.70;;;22.30;96.90;;;;;;5033604;28;20022;-43
2022/07/04 10:59:27;;;;;;;2.50;0.95;;;22.40;96.90;;;;;;5033068;28;20477;-39
2022/07/04 11:02:13;;;;;;;3.67;1.00;;;22.60;96.80;;;;;;5030036;28;20018;-45
2022/07/04 11:04:56;;;;;;;0.68;0.68;;;22.70;97.30;;;;;;5030650;28;20065;-40
2022/07/04 11:07:42;;;;;;;4.82;0.80;;;23.10;97.10;;;;;;5033135;28;20025;-39
2022/07/04 11:10:16;;;;;;;1.25;1.15;;;23.50;96.90;;;;;;5009205;28;20130;-38
2022/07/04 11:12:53;;;;;;;1.70;0.45;;;24.00;96.00;;;;;;5031330;28;20025;-38
2022/07/04 11:15:45;;;;;;;3.58;1.40;;;24.30;95.70;;;;;;5014347;28;20026;-39
2022/07/04 11:18:13;;;;;;;0.60;0.57;;;24.50;95.60;;;;;;5010591;28;20555;-37
2022/07/04 11:20:44;;;;;;;3.00;0.80;;;24.40;95.10;;;;;;5029578;28;20021;-42
2022/07/04 11:23:10;;;;;;;2.10;0.80;;;24.10;95.80;;;;;;5035317;28;20018;-58
2022/07/04 11:25:37;;;;;;;1.75;0.60;;;24.10;95.80;;;;;;5035128;28;20473;-44
2022/07/04 11:28:19;;;;;;;1.88;0.68;;;23.70;95.30;;;;;;5035294;28;20037;-40
2022/07/04 11:30:54;;;;;;;1.08;0.77;;;23.30;95.90;;;;;;5035540;28;20539;-40
2022/07/04 11:33:26;;;;;;;1.13;0.80;;;22.80;96.00;;;;;;5034192;28;20385;-43
2022/07/04 11:36:11;;;;;;;1.38;1.27;;;22.80;97.10;;;;;;5028566;28;20022;-38
2022/07/04 11:38:57;;;;;;;0.68;0.68;;;23.20;96.80;;;;;;5025408;28;20116;-38
2022/07/04 11:47:09;;;;;;;1.30;0.63;;;23.20;96.20;;;;;;5034951;28;20239;-42
2022/07/04 11:49:35;;;;;;;1.70;1.10;;;23.10;96.90;;;;;;5034814;28;20022;-38
2022/07/04 11:52:00;;;;;;;2.22;0.77;;;22.80;96.70;;;;;;5034717;28;20026;-40
2022/07/04 11:54:26;;;;;;;5.13;0.98;;;22.70;97.20;;;;;;5034131;28;20528;-39
2022/07/04 11:56:52;;;;;;;5.10;1.02;;;22.80;96.80;;;;;;4998867;28;20033;-38
2022/07/04 11:59:17;;;;;;;5.63;0.85;;;22.60;96.30;;;;;;5016184;28;20120;-46
2022/07/04 12:01:45;;;;;;;1.13;0.80;;;22.10;96.70;;;;;;5034648;28;20079;-39
2022/07/04 12:04:19;;;;;;;2.65;0.98;;;21.90;97.40;;;;;;5034670;28;20026;-38
2022/07/04 12:06:48;;;;;;;2.00;0.75;;;22.30;97.20;;;;;;5034544;28;20454;-40
2022/07/04 12:09:17;;;;;;;1.55;0.70;;;22.70;96.90;;;;;;5045842;28;20021;-37
2022/07/04 12:11:57;;;;;;;1.85;0.88;;;22.70;96.40;;;;;;5034681;28;20481;-40
2022/07/04 12:14:23;;;;;;;0.57;0.50;;;22.60;96.90;;;;;;5034248;28;20022;-39
2022/07/04 12:16:48;;;;;;;2.85;0.95;;;22.70;97.40;;;;;;5016478;28;20032;-57
2022/07/04 12:19:14;;;;;;;1.75;0.63;;;22.90;96.70;;;;;;5034225;28;20033;-50
2022/07/04 12:21:43;;;;;;;0.57;0.57;;;22.90;96.20;;;;;;5034502;28;20021;-39
2022/07/04 12:24:10;;;;;;;2.17;1.00;;;22.60;96.50;;;;;;5034130;28;20041;-45
2022/07/04 12:26:46;;;;;;;2.05;0.77;;;22.50;96.90;;;;;;5033071;28;20037;-37
2022/07/04 12:29:22;;;;;;;2.88;0.65;;;22.70;96.90;;;;;;5014630;28;20056;-39
2022/07/04 12:31:53;;;;;;;1.60;0.52;;;22.80;97.20;;;;;;5014371;28;20468;-39
2022/07/04 12:34:19;;;;;;;3.47;0.60;;;22.90;96.60;;;;;;5014377;28;20080;-38
2022/07/04 12:36:56;;;;;;;2.50;0.63;;;23.20;96.30;;;;;;5014195;28;20500;-37
2022/07/04 12:39:37;;;;;;;1.52;0.60;;;23.40;96.60;;;;;;5014118;28;20026;-38
2022/07/04 12:42:03;;;;;;;1.65;0.65;;;23.60;96.70;;;;;;5020494;28;20021;-39
2022/07/04 12:44:29;;;;;;;2.77;0.63;;;23.70;95.80;;;;;;5031389;28;20036;-38
2022/07/04 12:46:58;;;;;;;1.88;0.60;;;23.20;96.10;;;;;;5014107;28;20026;-39
2022/07/04 12:49:24;;;;;;;4.47;0.50;;;22.80;96.00;;;;;;5013975;28;20037;-39
2022/07/04 12:51:50;;;;;;;1.80;1.08;;;22.70;96.90;;;;;;5019615;28;20030;-36
2022/07/04 12:54:17;;;;;;;2.33;0.70;;;22.80;96.40;;;;;;5026678;28;20029;-40
2022/07/04 12:56:45;;;;;;;3.33;0.63;;;22.90;96.30;;;;;;5027751;28;20092;-39
2022/07/04 12:59:18;;;;;;;2.72;0.65;;;22.90;96.20;;;;;;5036876;28;20037;-38
2022/07/04 13:01:45;;;;;;;1.60;0.90;;;23.10;96.40;;;;;;5023712;28;20520;-33
2022/07/04 13:04:11;;;;;;;2.75;0.90;;;23.20;96.10;;;;;;5027513;28;20017;-35
2022/07/04 13:06:38;;;;;;;2.67;1.07;;;23.40;96.00;;;;;;5024950;28;20362;-34
2022/07/04 13:09:07;;;;;;;0.52;0.40;;;23.60;95.60;;;;;;5027263;28;20100;-32
2022/07/04 13:14:18;;;;;;;1.77;0.75;;;23.70;95.70;;;;;;5026652;28;20044;-38
2022/07/04 13:16:43;;;;;;;1.45;0.90;;;23.60;95.50;;;;;;5023552;28;20528;-40
2022/07/04 13:19:09;;;;;;;2.10;0.75;;;23.60;95.90;;;;;;5024539;28;20037;-38